createdAt,value
2024-02-09T00:00:33.202Z,4.93
2024-02-09T00:03:01.908Z,4.73
2024-02-09T00:05:32.371Z,4.50
2024-02-09T00:08:06.808Z,4.70
2024-02-09T00:10:38.297Z,4.43
2024-02-09T00:13:06.202Z,4.57
2024-02-09T00:15:34.794Z,5.20
2024-02-09T00:18:04.895Z,4.23
2024-02-09T00:20:32.206Z,3.90
2024-02-09T00:22:59.266Z,4.23
2024-02-09T00:25:27.998Z,4.80
2024-02-09T00:27:55.801Z,4.50
2024-02-09T00:30:23.027Z,4.20
2024-02-09T00:32:52.696Z,5.50
2024-02-09T00:35:19.746Z,3.70
2024-02-09T00:37:47.312Z,4.47
2024-02-09T00:40:15.097Z,5.33
2024-02-09T00:42:42.085Z,4.30
2024-02-09T00:45:09.818Z,5.70
2024-02-09T00:47:37.864Z,5.60
2024-02-09T00:50:06.747Z,4.30
2024-02-09T00:52:33.886Z,4.60
2024-02-09T00:55:02.470Z,4.20
2024-02-09T00:57:29.434Z,3.20
2024-02-09T00:59:57.615Z,3.60
2024-02-09T01:02:25.968Z,4.40
2024-02-09T01:04:53.069Z,3.80
2024-02-09T01:07:20.129Z,3.90
2024-02-09T01:09:47.121Z,4.73
2024-02-09T01:12:32.602Z,3.80
2024-02-09T01:15:20.534Z,3.60
2024-02-09T01:18:05.799Z,3.07
2024-02-09T01:20:51.389Z,4.97
2024-02-09T01:23:36.964Z,4.00
2024-02-09T01:26:22.424Z,3.83
2024-02-09T01:29:07.986Z,4.60
2024-02-09T01:31:53.404Z,4.00
2024-02-09T01:34:39.343Z,3.93
2024-02-09T01:37:24.634Z,3.67
2024-02-09T01:40:09.976Z,4.60
2024-02-09T01:42:55.564Z,3.90
2024-02-09T01:45:41.024Z,5.03
2024-02-09T01:48:27.897Z,3.47
2024-02-09T01:51:13.844Z,4.17
2024-02-09T01:54:02.389Z,3.90
2024-02-09T01:56:47.862Z,3.53
2024-02-09T01:59:34.387Z,4.13
2024-02-09T02:02:20.360Z,3.00
2024-02-09T02:05:06.267Z,3.63
2024-02-09T02:07:51.852Z,3.80
2024-02-09T02:10:37.643Z,3.80
2024-02-09T02:13:23.276Z,3.90
2024-02-09T02:16:18.737Z,3.83
2024-02-09T02:19:05.064Z,4.40
2024-02-09T02:21:53.682Z,3.77
2024-02-09T02:24:44.780Z,3.47
2024-02-09T02:27:32.054Z,4.57
2024-02-09T02:30:17.522Z,3.30
2024-02-09T02:33:03.199Z,3.30
2024-02-09T02:35:48.911Z,3.10
2024-02-09T02:38:34.364Z,3.27
2024-02-09T02:41:19.422Z,3.90
2024-02-09T02:43:46.607Z,3.60
2024-02-09T02:46:16.563Z,3.60
2024-02-09T02:49:06.611Z,3.77
2024-02-09T02:51:52.075Z,3.20
2024-02-09T02:54:37.596Z,3.77
2024-02-09T02:57:24.241Z,3.10
2024-02-09T03:00:11.879Z,3.70
2024-02-09T03:02:59.214Z,3.37
2024-02-09T03:05:28.280Z,3.73
2024-02-09T03:10:30.651Z,3.20
2024-02-09T03:12:57.876Z,4.17
2024-02-09T03:15:25.275Z,3.53
2024-02-09T03:17:55.535Z,4.13
2024-02-09T03:20:26.177Z,3.93
2024-02-09T03:22:53.300Z,2.93
2024-02-09T03:25:22.661Z,3.60
2024-02-09T03:27:50.425Z,3.90
2024-02-09T03:30:19.155Z,4.43
2024-02-09T03:32:47.237Z,4.40
2024-02-09T03:35:14.704Z,3.47
2024-02-09T03:37:43.376Z,4.47
2024-02-09T03:40:12.050Z,5.10
2024-02-09T03:42:38.986Z,3.50
2024-02-09T03:45:07.823Z,4.80
2024-02-09T03:47:35.266Z,4.30
2024-02-09T03:50:05.427Z,3.40
2024-02-09T03:52:32.635Z,4.07
2024-02-09T03:54:59.752Z,4.47
2024-02-09T03:57:28.328Z,3.80
2024-02-09T03:59:56.102Z,3.83
2024-02-09T04:02:23.378Z,3.03
2024-02-09T04:04:50.311Z,3.43
2024-02-09T04:07:22.249Z,3.63
2024-02-09T04:12:20.048Z,3.33
2024-02-09T04:14:46.863Z,3.07
2024-02-09T04:17:14.863Z,2.90
2024-02-09T04:19:41.628Z,2.40
2024-02-09T04:22:11.643Z,3.20
2024-02-09T04:24:38.638Z,2.43
2024-02-09T04:27:05.849Z,3.00
2024-02-09T04:29:34.240Z,2.60
2024-02-09T04:32:05.853Z,3.07
2024-02-09T04:34:33.290Z,2.77
2024-02-09T04:37:03.262Z,3.27
2024-02-09T04:39:30.150Z,2.93
2024-02-09T04:41:57.282Z,3.63
2024-02-09T04:44:24.701Z,2.70
2024-02-09T04:46:51.777Z,2.53
2024-02-09T04:49:18.771Z,2.70
2024-02-09T04:51:48.134Z,2.73
2024-02-09T04:54:15.691Z,2.30
2024-02-09T04:56:42.764Z,2.30
2024-02-09T04:59:10.500Z,2.70
2024-02-09T05:01:46.527Z,2.50
2024-02-09T05:04:16.042Z,2.50
2024-02-09T05:06:43.707Z,2.53
2024-02-09T05:09:11.244Z,4.20
2024-02-09T05:11:39.450Z,2.90
2024-02-09T05:14:07.575Z,2.77
2024-02-09T05:16:37.621Z,2.93
2024-02-09T05:19:04.628Z,2.93
2024-02-09T05:21:35.344Z,3.30
2024-02-09T05:24:03.460Z,2.63
2024-02-09T05:26:31.253Z,3.20
2024-02-09T05:28:58.066Z,3.40
2024-02-09T05:31:25.079Z,3.10
2024-02-09T05:33:52.465Z,3.07
2024-02-09T05:36:21.073Z,3.00
2024-02-09T05:38:48.835Z,3.30
2024-02-09T05:41:17.110Z,4.43
2024-02-09T05:43:45.190Z,3.77
2024-02-09T05:46:12.147Z,3.93
2024-02-09T05:48:39.395Z,3.67
2024-02-09T05:51:13.922Z,3.83
2024-02-09T05:53:42.179Z,3.90
2024-02-09T05:56:22.933Z,5.93
2024-02-09T05:58:53.011Z,4.27
2024-02-09T06:01:23.883Z,3.40
2024-02-09T06:03:53.504Z,3.00
2024-02-09T06:06:22.537Z,3.60
2024-02-09T06:08:50.604Z,4.70
2024-02-09T06:11:20.455Z,4.07
2024-02-09T06:13:47.891Z,3.70
2024-02-09T06:16:15.475Z,4.10
2024-02-09T06:18:47.500Z,3.53
2024-02-09T06:21:15.754Z,2.90
2024-02-09T06:23:45.355Z,3.53
2024-02-09T06:26:12.611Z,3.00
2024-02-09T06:28:39.674Z,3.57
2024-02-09T06:31:06.747Z,2.87
2024-02-09T06:33:34.487Z,3.57
2024-02-09T06:36:01.522Z,3.80
2024-02-09T06:38:28.414Z,3.67
2024-02-09T06:40:55.328Z,3.73
2024-02-09T06:43:22.605Z,3.40
2024-02-09T06:45:51.395Z,3.50
2024-02-09T06:48:18.722Z,4.07
2024-02-09T06:50:45.853Z,4.03
2024-02-09T06:53:12.639Z,3.07
2024-02-09T06:55:39.605Z,4.63
2024-02-09T06:58:06.851Z,3.90
2024-02-09T07:00:37.918Z,3.80
2024-02-09T07:03:05.589Z,3.17
2024-02-09T07:05:32.627Z,3.10
2024-02-09T07:07:59.565Z,3.53
2024-02-09T07:10:26.509Z,3.40
2024-02-09T07:13:35.367Z,3.70
2024-02-09T07:16:04.378Z,3.53
2024-02-09T07:18:32.703Z,3.00
2024-02-09T07:20:59.619Z,3.97
2024-02-09T07:23:29.432Z,3.00
2024-02-09T07:25:57.250Z,2.77
2024-02-09T07:28:24.322Z,3.63
2024-02-09T07:30:51.219Z,2.83
2024-02-09T07:33:18.520Z,3.70
2024-02-09T07:35:45.364Z,2.50
2024-02-09T07:38:12.813Z,3.60
2024-02-09T07:40:39.690Z,3.80
2024-02-09T07:43:06.884Z,3.97
2024-02-09T07:45:33.778Z,3.50
2024-02-09T07:48:00.886Z,3.47
2024-02-09T07:50:28.093Z,3.77
2024-02-09T07:52:55.461Z,6.43
2024-02-09T07:55:23.215Z,3.73
2024-02-09T07:57:50.248Z,8.57
2024-02-09T08:00:29.294Z,3.60
2024-02-09T08:02:56.059Z,3.07
2024-02-09T08:05:22.878Z,3.20
2024-02-09T08:07:50.044Z,3.50
2024-02-09T08:10:17.933Z,3.03
2024-02-09T08:12:48.694Z,3.93
2024-02-09T08:15:15.877Z,3.73
2024-02-09T08:17:52.587Z,2.90
2024-02-09T08:20:21.050Z,2.73
2024-02-09T08:22:48.086Z,2.93
2024-02-09T08:25:15.421Z,3.30
2024-02-09T08:27:42.462Z,3.70
2024-02-09T08:30:10.682Z,3.17
2024-02-09T08:32:39.098Z,2.67
2024-02-09T08:35:07.239Z,3.20
2024-02-09T08:37:34.663Z,4.57
2024-02-09T08:40:02.496Z,2.53
2024-02-09T08:42:29.498Z,3.47
2024-02-09T08:44:57.711Z,2.97
2024-02-09T08:47:24.587Z,3.00
2024-02-09T08:49:51.540Z,2.80
2024-02-09T08:52:19.543Z,3.20
2024-02-09T08:54:47.142Z,3.00
2024-02-09T08:57:19.914Z,3.40
2024-02-09T08:59:46.870Z,3.10
2024-02-09T09:02:13.907Z,3.23
2024-02-09T09:04:40.897Z,10.77
2024-02-09T09:07:08.130Z,3.27
2024-02-09T09:09:35.307Z,3.50
2024-02-09T09:12:07.732Z,3.30
2024-02-09T09:14:38.165Z,2.97
2024-02-09T09:17:16.762Z,3.23
2024-02-09T09:19:48.139Z,3.40
2024-02-09T09:22:15.178Z,2.60
2024-02-09T09:24:42.074Z,3.23
2024-02-09T09:27:09.571Z,3.40
2024-02-09T09:29:36.927Z,2.57
2024-02-09T09:32:03.960Z,2.60
2024-02-09T09:34:32.579Z,3.30
2024-02-09T09:36:59.697Z,3.23
2024-02-09T09:39:28.354Z,3.50
2024-02-09T09:41:57.765Z,3.20
2024-02-09T09:44:28.104Z,3.50
2024-02-09T09:46:57.460Z,4.07
2024-02-09T09:49:28.105Z,3.37
2024-02-09T09:52:01.873Z,3.50
2024-02-09T09:54:32.180Z,2.90
2024-02-09T09:57:02.501Z,2.70
2024-02-09T09:59:30.433Z,3.47
2024-02-09T10:01:57.829Z,2.80
2024-02-09T10:04:24.937Z,3.87
2024-02-09T10:06:52.109Z,3.00
2024-02-09T10:09:19.002Z,3.17
2024-02-09T10:11:47.115Z,3.40
2024-02-09T10:14:16.912Z,3.20
2024-02-09T10:16:45.610Z,2.83
2024-02-09T10:19:15.563Z,3.57
2024-02-09T10:21:50.846Z,3.17
2024-02-09T10:24:23.720Z,3.83
2024-02-09T10:26:51.503Z,3.10
2024-02-09T10:29:21.978Z,3.90
2024-02-09T10:31:50.760Z,3.70
2024-02-09T10:34:17.884Z,3.10
2024-02-09T10:36:45.080Z,3.57
2024-02-09T10:39:12.126Z,4.00
2024-02-09T10:41:40.857Z,4.10
2024-02-09T10:44:10.572Z,3.83
2024-02-09T10:46:40.317Z,3.37
2024-02-09T10:49:10.920Z,4.00
2024-02-09T10:51:40.285Z,3.90
2024-02-09T10:54:15.990Z,2.93
2024-02-09T10:56:43.606Z,4.20
2024-02-09T10:59:11.348Z,3.47
2024-02-09T11:01:39.155Z,3.70
2024-02-09T11:04:06.624Z,3.60
2024-02-09T11:06:34.705Z,3.80
2024-02-09T11:09:01.989Z,3.43
2024-02-09T11:11:33.672Z,3.40
2024-02-09T11:14:07.196Z,3.33
2024-02-09T11:16:42.427Z,3.37
2024-02-09T11:19:14.773Z,3.43
2024-02-09T11:21:49.334Z,3.63
2024-02-09T11:24:18.452Z,3.40
2024-02-09T11:26:49.678Z,3.70
2024-02-09T11:29:20.444Z,3.50
2024-02-09T11:31:53.521Z,2.70
2024-02-09T11:34:23.004Z,3.73
2024-02-09T11:36:49.988Z,4.17
2024-02-09T11:39:18.409Z,3.40
2024-02-09T11:41:45.988Z,3.40
2024-02-09T11:44:12.823Z,3.80
2024-02-09T11:46:42.629Z,3.60
2024-02-09T11:49:09.682Z,4.10
2024-02-09T11:51:36.716Z,3.47
2024-02-09T11:54:07.793Z,3.27
2024-02-09T11:56:36.426Z,3.60
2024-02-09T11:59:06.699Z,3.80
2024-02-09T12:01:34.382Z,3.87
2024-02-09T12:04:01.415Z,3.50
2024-02-09T12:06:31.193Z,3.10
2024-02-09T12:08:58.463Z,3.20
2024-02-09T12:11:25.514Z,3.20
2024-02-09T12:13:52.729Z,3.30
2024-02-09T12:16:20.171Z,3.43
2024-02-09T12:18:49.153Z,3.43
2024-02-09T12:21:18.966Z,3.23
2024-02-09T12:23:46.263Z,2.73
2024-02-09T12:26:15.424Z,2.83
2024-02-09T12:28:42.456Z,3.17
2024-02-09T12:31:09.832Z,4.60
2024-02-09T12:33:47.510Z,2.13
2024-02-09T12:36:15.857Z,2.37
2024-02-09T12:38:46.003Z,3.00
2024-02-09T12:41:16.138Z,2.77
2024-02-09T12:43:46.276Z,2.37
2024-02-09T12:46:13.270Z,2.17
2024-02-09T12:48:42.521Z,1.50
2024-02-09T12:51:09.421Z,0.93
2024-02-09T12:53:36.317Z,1.87
2024-02-09T12:56:04.414Z,1.67
2024-02-09T12:58:31.740Z,2.17
2024-02-09T13:01:01.694Z,1.53
2024-02-09T13:03:29.611Z,2.07
2024-02-09T13:05:56.908Z,1.63
2024-02-09T13:08:23.792Z,2.03
2024-02-09T13:10:53.633Z,2.70
2024-02-09T13:13:20.633Z,2.03
2024-02-09T13:15:47.501Z,2.00
2024-02-09T13:18:14.487Z,1.57
2024-02-09T13:20:46.539Z,1.37
2024-02-09T13:23:15.207Z,2.10
2024-02-09T13:25:42.942Z,2.10
2024-02-09T13:28:10.253Z,2.50
2024-02-09T13:30:37.326Z,2.30
2024-02-09T13:33:05.362Z,2.20
2024-02-09T13:35:33.977Z,1.83
2024-02-09T13:38:01.015Z,2.70
2024-02-09T13:40:27.978Z,2.50
2024-02-09T13:42:54.998Z,2.23
2024-02-09T13:45:24.784Z,2.30
2024-02-09T13:47:54.864Z,2.50
2024-02-09T13:50:30.500Z,2.20
2024-02-09T13:52:57.798Z,2.40
2024-02-09T13:55:25.779Z,2.67
2024-02-09T13:57:52.725Z,2.37
2024-02-09T14:00:20.162Z,2.90
2024-02-09T14:02:47.278Z,2.30
2024-02-09T14:05:16.643Z,2.57
2024-02-09T14:07:44.243Z,2.60
2024-02-09T14:10:15.249Z,3.13
2024-02-09T14:12:42.489Z,2.60
2024-02-09T14:15:10.171Z,2.30
2024-02-09T14:17:37.374Z,2.80
2024-02-09T14:20:05.243Z,3.10
2024-02-09T14:22:32.958Z,2.63
2024-02-09T14:25:00.192Z,3.00
2024-02-09T14:27:27.440Z,2.90
2024-02-09T14:29:54.828Z,3.47
2024-02-09T14:32:23.109Z,2.93
2024-02-09T14:34:50.198Z,3.57
2024-02-09T14:37:17.264Z,3.03
2024-02-09T14:39:44.272Z,3.47
2024-02-09T14:42:13.390Z,3.80
2024-02-09T14:44:44.667Z,2.50
2024-02-09T14:47:11.745Z,3.07
2024-02-09T14:49:39.201Z,3.10
2024-02-09T14:52:09.002Z,2.87
2024-02-09T14:54:41.283Z,2.70
2024-02-09T14:57:08.461Z,2.67
2024-02-09T14:59:35.250Z,3.20
2024-02-09T15:02:02.167Z,2.67
2024-02-09T15:04:30.861Z,3.10
2024-02-09T15:06:58.233Z,4.10
2024-02-09T15:09:25.690Z,2.67
2024-02-09T15:11:53.210Z,4.00
2024-02-09T15:14:20.297Z,3.73
2024-02-09T15:16:47.252Z,3.60
2024-02-09T15:19:14.436Z,4.77
2024-02-09T15:21:42.581Z,4.30
2024-02-09T15:24:12.004Z,3.10
2024-02-09T15:26:41.036Z,3.07
2024-02-09T15:29:08.239Z,2.93
2024-02-09T15:31:35.166Z,3.23
2024-02-09T15:34:02.321Z,3.60
2024-02-09T15:36:33.160Z,3.50
2024-02-09T15:39:00.334Z,4.37
2024-02-09T15:41:28.551Z,4.20
2024-02-09T15:43:55.622Z,4.30
2024-02-09T15:46:23.007Z,4.57
2024-02-09T15:48:53.973Z,4.87
2024-02-09T15:51:30.401Z,5.03
2024-02-09T15:53:59.630Z,4.70
2024-02-09T15:56:33.505Z,4.40
2024-02-09T15:59:01.873Z,6.67
2024-02-09T16:01:36.240Z,4.40
2024-02-09T16:04:03.309Z,5.50
2024-02-09T16:06:30.338Z,4.83
2024-02-09T16:08:57.839Z,4.23
2024-02-09T16:11:32.484Z,6.20
2024-02-09T16:14:02.372Z,5.00
2024-02-09T16:16:31.807Z,5.93
2024-02-09T16:18:59.064Z,4.93
2024-02-09T16:21:26.944Z,6.07
2024-02-09T16:24:04.061Z,7.07
2024-02-09T16:26:34.373Z,8.07
2024-02-09T16:29:02.106Z,7.90
2024-02-09T16:31:29.075Z,7.00
2024-02-09T16:33:58.147Z,6.63
2024-02-09T16:36:25.874Z,6.80
2024-02-09T16:38:53.500Z,6.63
2024-02-09T16:41:20.680Z,7.20
2024-02-09T16:43:47.686Z,6.97
2024-02-09T16:46:15.427Z,7.30
2024-02-09T16:48:43.157Z,6.50
2024-02-09T16:51:12.093Z,6.90
2024-02-09T16:53:38.946Z,7.43
2024-02-09T16:56:06.131Z,6.90
2024-02-09T16:58:32.970Z,5.63
2024-02-09T17:00:59.775Z,6.97
2024-02-09T17:03:28.623Z,6.20
2024-02-09T17:05:56.130Z,6.30
2024-02-09T17:08:23.037Z,6.20
2024-02-09T17:10:49.876Z,5.47
2024-02-09T17:13:16.774Z,5.53
2024-02-09T17:16:13.226Z,5.70
2024-02-09T17:18:40.000Z,6.50
2024-02-09T17:21:08.009Z,5.17
2024-02-09T17:23:35.450Z,5.47
2024-02-09T17:26:03.504Z,6.60
2024-02-09T17:28:30.361Z,6.67
2024-02-09T17:30:57.173Z,5.77
2024-02-09T17:33:23.964Z,5.83
2024-02-09T17:35:50.860Z,5.73
2024-02-09T17:38:17.598Z,6.33
2024-02-09T17:40:44.481Z,5.87
2024-02-09T17:43:12.297Z,6.17
2024-02-09T17:45:39.773Z,7.40
2024-02-09T17:48:07.992Z,7.27
2024-02-09T17:50:35.344Z,6.80
2024-02-09T17:53:02.708Z,6.60
2024-02-09T17:55:29.560Z,6.00
2024-02-09T17:57:57.468Z,6.83
2024-02-09T18:00:25.146Z,6.60
2024-02-09T18:02:51.935Z,7.27
2024-02-09T18:05:20.576Z,6.77
2024-02-09T18:07:47.600Z,6.77
2024-02-09T18:10:18.821Z,6.60
2024-02-09T18:12:46.156Z,5.20
2024-02-09T18:15:13.001Z,4.30
2024-02-09T18:17:39.803Z,5.60
2024-02-09T18:20:07.340Z,5.87
2024-02-09T18:22:34.205Z,6.70
2024-02-09T18:25:00.971Z,11.53
2024-02-09T18:27:28.920Z,7.93
2024-02-09T18:29:55.700Z,8.33
2024-02-09T18:32:25.569Z,5.80
2024-02-09T18:34:54.618Z,7.23
2024-02-09T18:37:21.608Z,6.20
2024-02-09T18:39:48.473Z,5.87
2024-02-09T18:42:16.210Z,5.30
2024-02-09T18:44:43.296Z,5.47
2024-02-09T18:47:13.352Z,5.40
2024-02-09T18:49:41.964Z,5.43
2024-02-09T18:52:11.783Z,4.73
2024-02-09T18:54:41.634Z,6.13
2024-02-09T18:57:08.929Z,5.23
2024-02-09T18:59:40.435Z,11.30
2024-02-09T19:02:21.590Z,5.80
2024-02-09T19:05:02.653Z,6.13
2024-02-09T19:11:43.741Z,6.70
2024-02-09T19:17:46.500Z,7.43
2024-02-09T19:20:54.676Z,6.70
2024-02-09T19:23:25.735Z,7.23
2024-02-09T19:25:58.846Z,6.27
2024-02-09T19:28:31.572Z,6.03
2024-02-09T19:31:23.363Z,7.07
2024-02-09T19:34:29.955Z,6.37
2024-02-09T19:36:56.891Z,5.80
2024-02-09T19:39:23.825Z,6.40
2024-02-09T19:41:51.411Z,5.80
2024-02-09T19:44:39.622Z,6.00
2024-02-09T19:47:43.209Z,6.73
2024-02-09T19:50:22.238Z,7.30
2024-02-09T19:52:54.894Z,6.60
2024-02-09T19:55:22.450Z,8.00
2024-02-09T19:57:58.563Z,8.27
2024-02-09T20:00:28.975Z,6.13
2024-02-09T20:03:09.272Z,5.93
2024-02-09T20:05:59.604Z,7.07
2024-02-09T20:08:44.809Z,5.70
2024-02-09T20:11:12.251Z,6.93
2024-02-09T20:17:01.696Z,5.70
2024-02-09T20:19:28.886Z,5.77
2024-02-09T20:21:55.782Z,6.20
2024-02-09T20:24:23.385Z,8.23
2024-02-09T20:26:50.161Z,5.47
2024-02-09T20:29:21.415Z,6.87
2024-02-09T20:32:02.296Z,7.27
2024-02-09T20:34:30.163Z,6.60
2024-02-09T20:37:06.298Z,6.27
2024-02-09T20:40:09.811Z,6.83
2024-02-09T20:43:04.575Z,5.53
2024-02-09T22:03:10.256Z,6.43
2024-02-09T22:05:57.348Z,5.70
2024-02-09T22:12:57.386Z,5.43
2024-02-09T22:15:32.047Z,6.17
2024-02-09T22:17:58.934Z,5.57
2024-02-09T22:20:26.178Z,5.87
2024-02-09T22:22:54.082Z,5.50
2024-02-09T22:25:21.645Z,5.00
2024-02-09T22:27:52.559Z,6.27
2024-02-09T22:30:19.901Z,4.87
2024-02-09T22:32:48.799Z,5.43
2024-02-09T22:35:23.108Z,5.63
2024-02-09T22:37:50.217Z,7.07
2024-02-09T22:40:18.750Z,7.67
2024-02-09T22:42:47.722Z,6.43
2024-02-09T22:49:17.745Z,5.67
2024-02-09T22:51:47.442Z,7.00
2024-02-09T22:54:16.866Z,5.83
2024-02-09T22:56:43.745Z,6.07
2024-02-09T22:59:10.812Z,7.63
2024-02-09T23:02:08.803Z,5.60
2024-02-09T23:05:46.919Z,6.50
2024-02-09T23:30:11.222Z,6.03
2024-02-09T23:46:29.213Z,6.50
2024-02-09T23:49:51.230Z,6.00
2024-02-09T23:57:45.419Z,6.33
